sensor_id;sensor_type;location;lat;lon;timestamp;pressure;altitude;pressure_sealevel;temperature;humidity
20971;BME280;10644;48.834;10.088;2022-08-01T00:01:35;96651.75;;;27.77;37.92
20971;BME280;10644;48.834;10.088;2022-08-01T00:04:01;96648.97;;;27.79;38.13
20971;BME280;10644;48.834;10.088;2022-08-01T00:06:27;96641.22;;;27.77;37.94
20971;BME280;10644;48.834;10.088;2022-08-01T00:08:53;96652.50;;;27.71;37.91
20971;BME280;10644;48.834;10.088;2022-08-01T00:11:21;96657.28;;;27.61;38.19
20971;BME280;10644;48.834;10.088;2022-08-01T00:13:53;96655.94;;;27.30;38.98
20971;BME280;10644;48.834;10.088;2022-08-01T00:16:18;96652.25;;;27.10;39.53
20971;BME280;10644;48.834;10.088;2022-08-01T00:18:44;96654.06;;;27.09;39.50
20971;BME280;10644;48.834;10.088;2022-08-01T00:21:22;96654.44;;;27.06;39.87
20971;BME280;10644;48.834;10.088;2022-08-01T00:23:47;96654.19;;;27.01;39.86
20971;BME280;10644;48.834;10.088;2022-08-01T00:26:15;96662.25;;;27.00;40.29
20971;BME280;10644;48.834;10.088;2022-08-01T00:28:41;96651.59;;;26.87;40.18
20971;BME280;10644;48.834;10.088;2022-08-01T00:31:07;96664.53;;;26.88;40.24
20971;BME280;10644;48.834;10.088;2022-08-01T00:33:33;96661.84;;;26.82;40.61
20971;BME280;10644;48.834;10.088;2022-08-01T00:35:58;96661.19;;;26.80;40.59
20971;BME280;10644;48.834;10.088;2022-08-01T00:38:24;96666.91;;;26.83;40.52
20971;BME280;10644;48.834;10.088;2022-08-01T00:40:50;96669.34;;;26.85;40.63
20971;BME280;10644;48.834;10.088;2022-08-01T00:43:16;96666.09;;;26.83;40.60
20971;BME280;10644;48.834;10.088;2022-08-01T00:45:44;96664.09;;;26.85;40.21
20971;BME280;10644;48.834;10.088;2022-08-01T00:48:11;96658.19;;;26.83;40.48
20971;BME280;10644;48.834;10.088;2022-08-01T00:50:38;96654.69;;;26.76;40.57
20971;BME280;10644;48.834;10.088;2022-08-01T00:53:10;96664.47;;;26.82;40.35
20971;BME280;10644;48.834;10.088;2022-08-01T00:55:37;96663.19;;;26.78;40.79
20971;BME280;10644;48.834;10.088;2022-08-01T00:58:03;96660.66;;;26.70;40.61
20971;BME280;10644;48.834;10.088;2022-08-01T01:00:33;96658.31;;;26.75;40.69
20971;BME280;10644;48.834;10.088;2022-08-01T01:02:58;96652.13;;;26.68;40.59
20971;BME280;10644;48.834;10.088;2022-08-01T01:05:24;96654.13;;;26.66;40.64
20971;BME280;10644;48.834;10.088;2022-08-01T01:08:06;96666.66;;;26.64;40.39
20971;BME280;10644;48.834;10.088;2022-08-01T01:11:03;96661.94;;;26.59;40.47
20971;BME280;10644;48.834;10.088;2022-08-01T01:13:42;96663.31;;;26.55;40.62
20971;BME280;10644;48.834;10.088;2022-08-01T01:16:17;96671.34;;;26.54;40.33
20971;BME280;10644;48.834;10.088;2022-08-01T01:19:00;96676.25;;;26.57;40.53
20971;BME280;10644;48.834;10.088;2022-08-01T01:24:45;96667.81;;;26.47;40.40
20971;BME280;10644;48.834;10.088;2022-08-01T01:29:48;96670.31;;;26.40;41.15
20971;BME280;10644;48.834;10.088;2022-08-01T01:32:30;96675.88;;;26.45;40.62
20971;BME280;10644;48.834;10.088;2022-08-01T01:35:02;96677.66;;;26.45;40.76
20971;BME280;10644;48.834;10.088;2022-08-01T01:37:38;96676.03;;;26.44;40.56
20971;BME280;10644;48.834;10.088;2022-08-01T01:40:05;96682.47;;;26.41;40.79
20971;BME280;10644;48.834;10.088;2022-08-01T01:42:33;96683.19;;;26.35;41.02
20971;BME280;10644;48.834;10.088;2022-08-01T01:45:00;96689.16;;;26.29;41.18
20971;BME280;10644;48.834;10.088;2022-08-01T01:47:32;96669.31;;;26.27;40.91
20971;BME280;10644;48.834;10.088;2022-08-01T01:50:00;96687.63;;;26.35;40.86
20971;BME280;10644;48.834;10.088;2022-08-01T01:52:27;96666.34;;;26.30;41.16
20971;BME280;10644;48.834;10.088;2022-08-01T01:55:05;96672.84;;;26.34;40.64
20971;BME280;10644;48.834;10.088;2022-08-01T01:57:48;96684.09;;;26.28;40.96
20971;BME280;10644;48.834;10.088;2022-08-01T02:00:15;96682.31;;;26.06;41.39
20971;BME280;10644;48.834;10.088;2022-08-01T02:02:41;96679.69;;;26.06;41.46
20971;BME280;10644;48.834;10.088;2022-08-01T02:05:13;96672.63;;;26.06;41.18
20971;BME280;10644;48.834;10.088;2022-08-01T02:07:40;96685.41;;;26.09;41.42
20971;BME280;10644;48.834;10.088;2022-08-01T02:10:06;96680.41;;;26.00;41.58
20971;BME280;10644;48.834;10.088;2022-08-01T02:12:37;96691.56;;;26.02;41.55
20971;BME280;10644;48.834;10.088;2022-08-01T02:15:06;96695.53;;;25.98;41.71
20971;BME280;10644;48.834;10.088;2022-08-01T02:17:37;96691.56;;;26.02;41.62
20971;BME280;10644;48.834;10.088;2022-08-01T02:20:03;96686.94;;;26.04;41.53
20971;BME280;10644;48.834;10.088;2022-08-01T02:22:41;96692.31;;;26.10;41.24
20971;BME280;10644;48.834;10.088;2022-08-01T02:25:15;96695.91;;;26.09;41.31
20971;BME280;10644;48.834;10.088;2022-08-01T02:27:52;96695.09;;;26.09;41.29
20971;BME280;10644;48.834;10.088;2022-08-01T02:30:20;96699.38;;;26.10;41.94
20971;BME280;10644;48.834;10.088;2022-08-01T02:32:49;96683.44;;;26.11;41.39
20971;BME280;10644;48.834;10.088;2022-08-01T02:35:26;96687.94;;;26.03;41.25
20971;BME280;10644;48.834;10.088;2022-08-01T02:37:53;96692.25;;;25.96;41.69
20971;BME280;10644;48.834;10.088;2022-08-01T02:40:24;96689.38;;;25.91;41.75
20971;BME280;10644;48.834;10.088;2022-08-01T02:42:52;96690.28;;;25.98;41.54
20971;BME280;10644;48.834;10.088;2022-08-01T02:45:25;96688.28;;;26.00;41.56
20971;BME280;10644;48.834;10.088;2022-08-01T02:48:12;96698.63;;;26.01;41.49
20971;BME280;10644;48.834;10.088;2022-08-01T02:50:39;96693.53;;;26.00;41.73
20971;BME280;10644;48.834;10.088;2022-08-01T02:53:20;96707.03;;;25.97;41.67
20971;BME280;10644;48.834;10.088;2022-08-01T02:55:50;96686.88;;;25.89;41.80
20971;BME280;10644;48.834;10.088;2022-08-01T02:58:18;96690.66;;;25.87;41.90
20971;BME280;10644;48.834;10.088;2022-08-01T03:00:46;96692.66;;;25.85;42.05
20971;BME280;10644;48.834;10.088;2022-08-01T03:03:15;96697.63;;;25.80;42.32
20971;BME280;10644;48.834;10.088;2022-08-01T03:05:43;96702.88;;;25.80;42.16
20971;BME280;10644;48.834;10.088;2022-08-01T03:08:10;96702.88;;;25.80;42.10
20971;BME280;10644;48.834;10.088;2022-08-01T03:10:39;96705.22;;;25.75;42.17
20971;BME280;10644;48.834;10.088;2022-08-01T03:13:07;96701.75;;;25.74;42.34
20971;BME280;10644;48.834;10.088;2022-08-01T03:15:36;96708.75;;;25.82;42.48
20971;BME280;10644;48.834;10.088;2022-08-01T03:18:10;96698.88;;;25.84;41.87
20971;BME280;10644;48.834;10.088;2022-08-01T03:20:37;96702.50;;;25.91;42.24
20971;BME280;10644;48.834;10.088;2022-08-01T03:23:08;96709.22;;;25.93;42.05
20971;BME280;10644;48.834;10.088;2022-08-01T03:25:38;96709.66;;;25.97;41.84
20971;BME280;10644;48.834;10.088;2022-08-01T03:28:04;96710.13;;;26.00;41.96
20971;BME280;10644;48.834;10.088;2022-08-01T03:30:32;96710.91;;;26.01;42.08
20971;BME280;10644;48.834;10.088;2022-08-01T03:33:05;96707.31;;;26.02;41.83
20971;BME280;10644;48.834;10.088;2022-08-01T03:35:34;96706.03;;;25.98;42.12
20971;BME280;10644;48.834;10.088;2022-08-01T03:38:05;96718.06;;;25.92;42.11
20971;BME280;10644;48.834;10.088;2022-08-01T03:40:41;96704.41;;;25.97;41.95
20971;BME280;10644;48.834;10.088;2022-08-01T03:43:17;96716.53;;;25.98;41.97
20971;BME280;10644;48.834;10.088;2022-08-01T03:45:48;96716.53;;;25.98;42.03
20971;BME280;10644;48.834;10.088;2022-08-01T03:48:19;96722.13;;;25.95;42.13
20971;BME280;10644;48.834;10.088;2022-08-01T03:50:53;96715.63;;;25.91;42.37
20971;BME280;10644;48.834;10.088;2022-08-01T03:53:24;96717.09;;;25.85;42.17
20971;BME280;10644;48.834;10.088;2022-08-01T03:55:52;96710.91;;;25.78;42.52
20971;BME280;10644;48.834;10.088;2022-08-01T03:58:27;96727.47;;;25.79;42.33
20971;BME280;10644;48.834;10.088;2022-08-01T04:00:54;96716.97;;;25.79;42.75
20971;BME280;10644;48.834;10.088;2022-08-01T04:03:19;96717.66;;;25.73;42.77
20971;BME280;10644;48.834;10.088;2022-08-01T04:05:47;96716.81;;;25.58;43.07
20971;BME280;10644;48.834;10.088;2022-08-01T04:08:13;96724.38;;;25.53;43.27
20971;BME280;10644;48.834;10.088;2022-08-01T04:10:39;96728.94;;;25.59;43.33
20971;BME280;10644;48.834;10.088;2022-08-01T04:13:04;96729.25;;;25.64;43.37
20971;BME280;10644;48.834;10.088;2022-08-01T04:15:30;96717.44;;;25.60;43.01
20971;BME280;10644;48.834;10.088;2022-08-01T04:17:55;96740.19;;;25.67;42.94
20971;BME280;10644;48.834;10.088;2022-08-01T04:20:21;96730.88;;;25.65;43.28
20971;BME280;10644;48.834;10.088;2022-08-01T04:22:55;96737.50;;;25.53;43.17
20971;BME280;10644;48.834;10.088;2022-08-01T04:25:32;96735.41;;;25.48;43.29
20971;BME280;10644;48.834;10.088;2022-08-01T04:28:01;96733.41;;;25.50;43.52
20971;BME280;10644;48.834;10.088;2022-08-01T04:30:31;96740.13;;;25.53;43.57
20971;BME280;10644;48.834;10.088;2022-08-01T04:32:58;96742.41;;;25.56;43.51
20971;BME280;10644;48.834;10.088;2022-08-01T04:35:26;96752.56;;;25.59;43.53
20971;BME280;10644;48.834;10.088;2022-08-01T04:37:55;96747.16;;;25.60;43.65
20971;BME280;10644;48.834;10.088;2022-08-01T04:40:26;96751.69;;;25.66;43.26
20971;BME280;10644;48.834;10.088;2022-08-01T04:42:51;96746.75;;;25.71;43.51
20971;BME280;10644;48.834;10.088;2022-08-01T04:45:18;96752.00;;;25.71;43.68
20971;BME280;10644;48.834;10.088;2022-08-01T04:47:44;96747.91;;;25.69;43.48
20971;BME280;10644;48.834;10.088;2022-08-01T04:50:11;96752.88;;;25.64;43.76
20971;BME280;10644;48.834;10.088;2022-08-01T04:52:39;96754.56;;;25.57;44.04
20971;BME280;10644;48.834;10.088;2022-08-01T04:55:07;96750.31;;;25.48;44.11
20971;BME280;10644;48.834;10.088;2022-08-01T04:57:36;96756.88;;;25.52;44.30
20971;BME280;10644;48.834;10.088;2022-08-01T05:00:03;96762.75;;;25.54;44.38
20971;BME280;10644;48.834;10.088;2022-08-01T05:02:30;96760.44;;;25.59;44.45
20971;BME280;10644;48.834;10.088;2022-08-01T05:04:55;96760.81;;;25.48;44.49
20971;BME280;10644;48.834;10.088;2022-08-01T05:07:23;96748.22;;;25.43;44.67
20971;BME280;10644;48.834;10.088;2022-08-01T05:09:49;96767.97;;;25.31;45.29
20971;BME280;10644;48.834;10.088;2022-08-01T05:12:15;96764.88;;;25.20;45.49
20971;BME280;10644;48.834;10.088;2022-08-01T05:14:41;96769.16;;;25.13;45.99
20971;BME280;10644;48.834;10.088;2022-08-01T05:17:08;96769.81;;;25.15;46.09
20971;BME280;10644;48.834;10.088;2022-08-01T05:19:34;96776.38;;;25.11;45.94
20971;BME280;10644;48.834;10.088;2022-08-01T05:22:01;96762.94;;;25.06;46.14
20971;BME280;10644;48.834;10.088;2022-08-01T05:24:29;96755.28;;;24.96;46.47
20971;BME280;10644;48.834;10.088;2022-08-01T05:26:56;96765.75;;;24.96;46.55
20971;BME280;10644;48.834;10.088;2022-08-01T05:29:25;96764.66;;;24.91;46.75
20971;BME280;10644;48.834;10.088;2022-08-01T05:31:57;96762.34;;;24.88;46.50
20971;BME280;10644;48.834;10.088;2022-08-01T05:34:28;96765.28;;;24.93;47.04
20971;BME280;10644;48.834;10.088;2022-08-01T05:36:55;96771.84;;;24.89;47.01
20971;BME280;10644;48.834;10.088;2022-08-01T05:39:33;96762.66;;;24.93;46.94
20971;BME280;10644;48.834;10.088;2022-08-01T05:41:58;96760.72;;;24.87;47.27
20971;BME280;10644;48.834;10.088;2022-08-01T05:44:24;96781.06;;;24.85;47.35
20971;BME280;10644;48.834;10.088;2022-08-01T05:46:51;96779.09;;;24.79;47.59
20971;BME280;10644;48.834;10.088;2022-08-01T05:49:17;96771.25;;;24.71;47.93
20971;BME280;10644;48.834;10.088;2022-08-01T05:51:46;96776.47;;;24.79;47.91
20971;BME280;10644;48.834;10.088;2022-08-01T05:54:11;96778.41;;;24.93;46.95
20971;BME280;10644;48.834;10.088;2022-08-01T05:56:37;96783.97;;;24.98;47.49
20971;BME280;10644;48.834;10.088;2022-08-01T05:59:02;96776.06;;;25.06;47.40
20971;BME280;10644;48.834;10.088;2022-08-01T06:01:27;96773.06;;;25.17;47.07
20971;BME280;10644;48.834;10.088;2022-08-01T06:03:53;96772.78;;;25.12;46.97
20971;BME280;10644;48.834;10.088;2022-08-01T06:06:20;96780.13;;;25.08;47.22
20971;BME280;10644;48.834;10.088;2022-08-01T06:08:45;96772.78;;;25.04;47.53
20971;BME280;10644;48.834;10.088;2022-08-01T06:11:11;96774.09;;;25.00;47.73
20971;BME280;10644;48.834;10.088;2022-08-01T06:13:36;96770.53;;;24.93;47.74
20971;BME280;10644;48.834;10.088;2022-08-01T06:16:03;96776.06;;;25.06;47.94
20971;BME280;10644;48.834;10.088;2022-08-01T06:18:28;96777.22;;;25.03;47.65
20971;BME280;10644;48.834;10.088;2022-08-01T06:20:55;96777.16;;;25.19;47.69
20971;BME280;10644;48.834;10.088;2022-08-01T06:23:21;96779.34;;;25.08;47.95
20971;BME280;10644;48.834;10.088;2022-08-01T06:25:47;96784.22;;;25.11;47.97
20971;BME280;10644;48.834;10.088;2022-08-01T06:28:12;96778.50;;;25.07;48.28
20971;BME280;10644;48.834;10.088;2022-08-01T06:30:38;96781.91;;;25.16;47.92
20971;BME280;10644;48.834;10.088;2022-08-01T06:33:03;96784.06;;;25.20;47.92
20971;BME280;10644;48.834;10.088;2022-08-01T06:35:36;96775.78;;;25.39;47.53
20971;BME280;10644;48.834;10.088;2022-08-01T06:38:02;96787.41;;;25.45;47.65
20971;BME280;10644;48.834;10.088;2022-08-01T06:40:28;96799.25;;;25.41;47.80
20971;BME280;10644;48.834;10.088;2022-08-01T06:42:53;96791.69;;;25.38;48.03
20971;BME280;10644;48.834;10.088;2022-08-01T06:45:18;96789.34;;;25.51;48.06
20971;BME280;10644;48.834;10.088;2022-08-01T06:47:47;96790.59;;;25.63;47.63
20971;BME280;10644;48.834;10.088;2022-08-01T06:50:13;96789.25;;;25.67;47.79
20971;BME280;10644;48.834;10.088;2022-08-01T06:52:40;96786.63;;;25.67;47.90
20971;BME280;10644;48.834;10.088;2022-08-01T06:55:06;96792.94;;;25.58;48.22
20971;BME280;10644;48.834;10.088;2022-08-01T06:57:33;96784.22;;;25.57;48.10
20971;BME280;10644;48.834;10.088;2022-08-01T07:00:02;96782.94;;;25.53;48.23
20971;BME280;10644;48.834;10.088;2022-08-01T07:02:28;96788.38;;;25.52;48.44
20971;BME280;10644;48.834;10.088;2022-08-01T07:04:54;96774.16;;;25.38;48.90
20971;BME280;10644;48.834;10.088;2022-08-01T07:07:21;96778.75;;;25.36;49.07
20971;BME280;10644;48.834;10.088;2022-08-01T07:09:53;96782.13;;;25.53;48.90
20971;BME280;10644;48.834;10.088;2022-08-01T07:12:18;96769.81;;;25.53;48.75
20971;BME280;10644;48.834;10.088;2022-08-01T07:14:44;96786.31;;;25.62;48.58
20971;BME280;10644;48.834;10.088;2022-08-01T07:17:09;96772.94;;;25.49;48.76
20971;BME280;10644;48.834;10.088;2022-08-01T07:19:36;96774.94;;;25.47;48.63
20971;BME280;10644;48.834;10.088;2022-08-01T07:22:02;96767.38;;;25.52;48.46
20971;BME280;10644;48.834;10.088;2022-08-01T07:24:27;96768.78;;;25.62;48.42
20971;BME280;10644;48.834;10.088;2022-08-01T07:26:55;96766.59;;;25.74;48.01
20971;BME280;10644;48.834;10.088;2022-08-01T07:29:26;96773.03;;;25.94;47.69
20971;BME280;10644;48.834;10.088;2022-08-01T07:31:57;96775.63;;;26.02;47.56
20971;BME280;10644;48.834;10.088;2022-08-01T07:34:38;96774.63;;;26.03;47.44
20971;BME280;10644;48.834;10.088;2022-08-01T07:37:04;96778.59;;;25.99;47.98
20971;BME280;10644;48.834;10.088;2022-08-01T07:39:31;96776.59;;;26.01;47.59
20971;BME280;10644;48.834;10.088;2022-08-01T07:41:59;96768.72;;;26.01;47.43
20971;BME280;10644;48.834;10.088;2022-08-01T07:44:24;96771.28;;;26.09;47.32
20971;BME280;10644;48.834;10.088;2022-08-01T07:46:49;96774.53;;;26.11;47.53
20971;BME280;10644;48.834;10.088;2022-08-01T07:49:15;96776.88;;;26.06;47.60
20971;BME280;10644;48.834;10.088;2022-08-01T07:51:41;96763.34;;;26.17;47.34
20971;BME280;10644;48.834;10.088;2022-08-01T07:54:07;96759.28;;;26.29;47.08
20971;BME280;10644;48.834;10.088;2022-08-01T07:56:32;96762.94;;;26.42;47.17
20971;BME280;10644;48.834;10.088;2022-08-01T07:59:00;96772.28;;;26.45;46.93
20971;BME280;10644;48.834;10.088;2022-08-01T08:01:25;96762.19;;;26.34;46.94
20971;BME280;10644;48.834;10.088;2022-08-01T08:03:55;96769.09;;;26.35;47.08
20971;BME280;10644;48.834;10.088;2022-08-01T08:06:21;96766.69;;;26.48;47.11
20971;BME280;10644;48.834;10.088;2022-08-01T08:08:47;96759.75;;;26.55;46.97
20971;BME280;10644;48.834;10.088;2022-08-01T08:11:13;96759.59;;;26.71;46.67
20971;BME280;10644;48.834;10.088;2022-08-01T08:13:38;96759.50;;;26.79;46.36
20971;BME280;10644;48.834;10.088;2022-08-01T08:16:06;96755.13;;;26.86;46.57
20971;BME280;10644;48.834;10.088;2022-08-01T08:18:31;96756.84;;;27.08;46.03
20971;BME280;10644;48.834;10.088;2022-08-01T08:20:59;96759.47;;;27.08;46.20
20971;BME280;10644;48.834;10.088;2022-08-01T08:23:29;96765.47;;;27.02;46.44
20971;BME280;10644;48.834;10.088;2022-08-01T08:26:17;96765.69;;;27.15;46.03
20971;BME280;10644;48.834;10.088;2022-08-01T08:28:43;96754.94;;;27.31;45.82
20971;BME280;10644;48.834;10.088;2022-08-01T08:31:10;96763.13;;;27.36;45.43
20971;BME280;10644;48.834;10.088;2022-08-01T08:33:36;96766.00;;;27.41;45.20
20971;BME280;10644;48.834;10.088;2022-08-01T08:36:09;96751.50;;;27.45;45.29
20971;BME280;10644;48.834;10.088;2022-08-01T08:38:36;96759.53;;;27.58;45.36
20971;BME280;10644;48.834;10.088;2022-08-01T08:41:02;96765.56;;;27.87;45.22
20971;BME280;10644;48.834;10.088;2022-08-01T08:43:27;96759.84;;;27.84;44.72
20971;BME280;10644;48.834;10.088;2022-08-01T08:45:53;96755.59;;;27.83;45.23
20971;BME280;10644;48.834;10.088;2022-08-01T08:48:19;96766.88;;;28.19;44.56
20971;BME280;10644;48.834;10.088;2022-08-01T08:50:45;96754.22;;;28.08;44.23
20971;BME280;10644;48.834;10.088;2022-08-01T08:53:12;96753.25;;;27.94;44.48
20971;BME280;10644;48.834;10.088;2022-08-01T08:55:40;96756.31;;;27.77;45.01
20971;BME280;10644;48.834;10.088;2022-08-01T08:58:11;96759.47;;;27.87;44.70
20971;BME280;10644;48.834;10.088;2022-08-01T09:00:39;96754.53;;;27.98;44.71
20971;BME280;10644;48.834;10.088;2022-08-01T09:03:05;96747.88;;;28.02;45.12
20971;BME280;10644;48.834;10.088;2022-08-01T09:05:34;96750.56;;;28.09;44.74
20971;BME280;10644;48.834;10.088;2022-08-01T09:07:59;96746.81;;;27.97;44.51
20971;BME280;10644;48.834;10.088;2022-08-01T09:10:31;96752.06;;;28.18;44.07
20971;BME280;10644;48.834;10.088;2022-08-01T09:15:44;96753.94;;;28.24;44.09
20971;BME280;10644;48.834;10.088;2022-08-01T09:21:18;96753.44;;;28.35;44.49
20971;BME280;10644;48.834;10.088;2022-08-01T09:23:51;96759.00;;;28.40;43.80
20971;BME280;10644;48.834;10.088;2022-08-01T09:26:20;96759.41;;;28.43;44.06
20971;BME280;10644;48.834;10.088;2022-08-01T09:28:51;96759.06;;;28.46;43.42
20971;BME280;10644;48.834;10.088;2022-08-01T09:31:18;96755.06;;;28.36;43.69
20971;BME280;10644;48.834;10.088;2022-08-01T09:36:22;96765.75;;;28.28;43.21
20971;BME280;10644;48.834;10.088;2022-08-01T09:38:49;96753.78;;;28.46;43.05
20971;BME280;10644;48.834;10.088;2022-08-01T09:41:15;96760.06;;;28.73;42.60
20971;BME280;10644;48.834;10.088;2022-08-01T09:43:48;96759.47;;;28.77;42.45
20971;BME280;10644;48.834;10.088;2022-08-01T09:46:16;96762.44;;;28.68;42.72
20971;BME280;10644;48.834;10.088;2022-08-01T09:49:01;96761.50;;;28.75;42.91
20971;BME280;10644;48.834;10.088;2022-08-01T09:51:29;96756.06;;;28.56;42.55
20971;BME280;10644;48.834;10.088;2022-08-01T09:53:55;96750.50;;;28.44;42.68
20971;BME280;10644;48.834;10.088;2022-08-01T09:56:21;96756.72;;;28.16;43.28
20971;BME280;10644;48.834;10.088;2022-08-01T09:59:00;96760.47;;;28.28;43.31
20971;BME280;10644;48.834;10.088;2022-08-01T10:01:27;96746.06;;;28.45;42.85
20971;BME280;10644;48.834;10.088;2022-08-01T10:04:21;96750.56;;;28.51;42.78
20971;BME280;10644;48.834;10.088;2022-08-01T10:06:50;96753.72;;;28.40;42.85
20971;BME280;10644;48.834;10.088;2022-08-01T10:09:30;96757.59;;;28.44;42.76
20971;BME280;10644;48.834;10.088;2022-08-01T10:11:57;96748.09;;;28.49;42.90
20971;BME280;10644;48.834;10.088;2022-08-01T10:14:26;96737.38;;;28.85;42.67
20971;BME280;10644;48.834;10.088;2022-08-01T10:16:58;96740.09;;;29.32;41.05
20971;BME280;10644;48.834;10.088;2022-08-01T10:19:26;96747.34;;;29.23;40.96
20971;BME280;10644;48.834;10.088;2022-08-01T10:21:55;96739.19;;;29.12;41.25
20971;BME280;10644;48.834;10.088;2022-08-01T10:24:22;96743.16;;;29.35;40.59
20971;BME280;10644;48.834;10.088;2022-08-01T10:26:51;96739.84;;;29.67;39.46
20971;BME280;10644;48.834;10.088;2022-08-01T10:29:18;96723.75;;;29.62;39.50
20971;BME280;10644;48.834;10.088;2022-08-01T10:31:53;96737.09;;;29.48;39.38
20971;BME280;10644;48.834;10.088;2022-08-01T10:34:22;96745.00;;;29.41;39.34
20971;BME280;10644;48.834;10.088;2022-08-01T10:36:48;96750.97;;;29.16;39.50
20971;BME280;10644;48.834;10.088;2022-08-01T10:39:14;96732.47;;;29.09;39.78
20971;BME280;10644;48.834;10.088;2022-08-01T10:41:45;96739.75;;;29.48;39.70
20971;BME280;10644;48.834;10.088;2022-08-01T10:44:10;96753.00;;;29.61;39.41
20971;BME280;10644;48.834;10.088;2022-08-01T10:46:45;96735.47;;;30.13;39.10
20971;BME280;10644;48.834;10.088;2022-08-01T10:49:15;96742.19;;;30.22;38.35
20971;BME280;10644;48.834;10.088;2022-08-01T10:51:45;96732.41;;;30.10;39.03
20971;BME280;10644;48.834;10.088;2022-08-01T10:54:12;96747.69;;;30.27;38.20
20971;BME280;10644;48.834;10.088;2022-08-01T10:56:49;96739.34;;;30.37;38.12
20971;BME280;10644;48.834;10.088;2022-08-01T10:59:27;96734.25;;;30.35;37.84
20971;BME280;10644;48.834;10.088;2022-08-01T11:02:00;96730.38;;;30.51;38.13
20971;BME280;10644;48.834;10.088;2022-08-01T11:04:51;96724.44;;;30.88;37.56
20971;BME280;10644;48.834;10.088;2022-08-01T11:07:48;96725.81;;;31.10;37.36
20971;BME280;10644;48.834;10.088;2022-08-01T11:12:53;96719.25;;;31.32;36.50
20971;BME280;10644;48.834;10.088;2022-08-01T11:15:20;96712.09;;;31.32;36.40
20971;BME280;10644;48.834;10.088;2022-08-01T11:17:56;96708.03;;;31.30;36.14
20971;BME280;10644;48.834;10.088;2022-08-01T11:31:24;96710.47;;;30.42;37.42
20971;BME280;10644;48.834;10.088;2022-08-01T11:36:25;96713.69;;;30.50;37.33
20971;BME280;10644;48.834;10.088;2022-08-01T11:41:24;96708.63;;;30.36;38.05
20971;BME280;10644;48.834;10.088;2022-08-01T11:44:06;96718.00;;;30.19;37.76
20971;BME280;10644;48.834;10.088;2022-08-01T11:46:58;96706.38;;;30.07;37.87
20971;BME280;10644;48.834;10.088;2022-08-01T11:54:49;96695.66;;;31.11;36.35
20971;BME280;10644;48.834;10.088;2022-08-01T11:57:33;96691.34;;;31.29;35.75
20971;BME280;10644;48.834;10.088;2022-08-01T12:00:13;96689.84;;;31.40;35.75
20971;BME280;10644;48.834;10.088;2022-08-01T12:02:39;96694.47;;;31.51;35.63
20971;BME280;10644;48.834;10.088;2022-08-01T12:05:14;96686.72;;;31.56;35.05
20971;BME280;10644;48.834;10.088;2022-08-01T12:07:43;96676.09;;;31.62;35.29
20971;BME280;10644;48.834;10.088;2022-08-01T12:10:16;96681.59;;;31.92;34.86
20971;BME280;10644;48.834;10.088;2022-08-01T12:15:14;96690.03;;;31.45;35.13
20971;BME280;10644;48.834;10.088;2022-08-01T12:17:50;96667.19;;;31.00;36.15
20971;BME280;10644;48.834;10.088;2022-08-01T12:21:02;96673.06;;;31.02;36.59
20971;BME280;10644;48.834;10.088;2022-08-01T12:23:28;96671.44;;;31.01;36.27
20971;BME280;10644;48.834;10.088;2022-08-01T12:25:56;96670.72;;;31.38;35.72
20971;BME280;10644;48.834;10.088;2022-08-01T12:28:27;96668.16;;;31.56;35.31
20971;BME280;10644;48.834;10.088;2022-08-01T12:30:58;96662.16;;;31.36;35.51
20971;BME280;10644;48.834;10.088;2022-08-01T12:33:25;96678.31;;;31.21;35.75
20971;BME280;10644;48.834;10.088;2022-08-01T12:35:51;96676.47;;;31.15;35.86
20971;BME280;10644;48.834;10.088;2022-08-01T12:38:22;96679.13;;;31.28;36.08
20971;BME280;10644;48.834;10.088;2022-08-01T12:40:49;96674.22;;;31.32;35.67
20971;BME280;10644;48.834;10.088;2022-08-01T12:43:22;96675.63;;;31.34;35.58
20971;BME280;10644;48.834;10.088;2022-08-01T12:46:02;96673.25;;;31.57;35.42
20971;BME280;10644;48.834;10.088;2022-08-01T12:48:33;96682.94;;;31.39;35.19
20971;BME280;10644;48.834;10.088;2022-08-01T12:50:59;96665.28;;;31.13;35.31
20971;BME280;10644;48.834;10.088;2022-08-01T12:53:26;96672.09;;;30.90;35.67
20971;BME280;10644;48.834;10.088;2022-08-01T12:55:53;96666.53;;;31.04;35.43
20971;BME280;10644;48.834;10.088;2022-08-01T12:58:22;96661.31;;;30.85;35.68
20971;BME280;10644;48.834;10.088;2022-08-01T13:00:49;96681.63;;;31.04;35.60
20971;BME280;10644;48.834;10.088;2022-08-01T13:03:26;96664.06;;;31.16;34.87
20971;BME280;10644;48.834;10.088;2022-08-01T13:05:57;96665.31;;;31.07;34.82
20971;BME280;10644;48.834;10.088;2022-08-01T13:08:31;96667.44;;;30.79;35.63
20971;BME280;10644;48.834;10.088;2022-08-01T13:11:09;96660.38;;;30.66;35.90
20971;BME280;10644;48.834;10.088;2022-08-01T13:13:49;96672.34;;;30.75;36.01
20971;BME280;10644;48.834;10.088;2022-08-01T13:16:21;96659.75;;;30.77;35.48
20971;BME280;10644;48.834;10.088;2022-08-01T13:18:56;96659.31;;;30.74;35.38
20971;BME280;10644;48.834;10.088;2022-08-01T13:21:28;96636.81;;;31.02;34.78
20971;BME280;10644;48.834;10.088;2022-08-01T13:24:12;96658.69;;;31.73;34.01
20971;BME280;10644;48.834;10.088;2022-08-01T13:29:10;96656.88;;;31.67;33.19
20971;BME280;10644;48.834;10.088;2022-08-01T13:31:36;96646.47;;;31.65;33.67
20971;BME280;10644;48.834;10.088;2022-08-01T13:34:04;96645.03;;;31.76;33.63
20971;BME280;10644;48.834;10.088;2022-08-01T13:36:30;96641.75;;;31.74;33.59
20971;BME280;10644;48.834;10.088;2022-08-01T13:39:03;96642.00;;;31.66;34.24
20971;BME280;10644;48.834;10.088;2022-08-01T13:41:50;96647.13;;;31.61;34.03
20971;BME280;10644;48.834;10.088;2022-08-01T13:44:17;96642.97;;;31.78;33.21
20971;BME280;10644;48.834;10.088;2022-08-01T13:46:43;96638.19;;;31.55;33.33